createdAt,value
2019-01-14T00:00:54.600Z,15.83
2019-01-14T00:03:23.493Z,9.07
2019-01-14T00:05:52.360Z,14.73
2019-01-14T00:08:21.250Z,12.37
2019-01-14T00:10:50.266Z,9.60
2019-01-14T00:13:19.282Z,10.23
2019-01-14T00:15:48.213Z,10.23
2019-01-14T00:18:17.221Z,14.33
2019-01-14T00:20:46.130Z,36.10
2019-01-14T00:23:15.128Z,14.43
2019-01-14T00:25:43.996Z,17.87
2019-01-14T00:28:12.969Z,16.80
2019-01-14T00:30:41.836Z,13.27
2019-01-14T00:33:10.688Z,13.17
2019-01-14T00:35:39.588Z,18.07
2019-01-14T00:38:08.524Z,16.30
2019-01-14T00:40:37.520Z,17.13
2019-01-14T00:43:06.740Z,13.93
2019-01-14T00:45:35.541Z,20.40
2019-01-14T00:48:04.585Z,14.97
2019-01-14T00:50:33.518Z,17.70
2019-01-14T00:53:02.482Z,22.90
2019-01-14T00:55:32.241Z,18.20
2019-01-14T00:58:01.098Z,19.13
2019-01-14T01:00:30.024Z,16.13
2019-01-14T01:02:58.945Z,14.20
2019-01-14T01:05:27.858Z,22.57
2019-01-14T01:07:56.829Z,12.93
2019-01-14T01:10:25.786Z,12.20
2019-01-14T01:12:54.775Z,16.50
2019-01-14T01:15:24.252Z,12.60
2019-01-14T01:17:53.119Z,14.03
2019-01-14T01:20:22.179Z,17.17
2019-01-14T01:22:51.160Z,24.90
2019-01-14T01:25:20.243Z,23.73
2019-01-14T01:27:49.149Z,15.43
2019-01-14T01:30:19.087Z,13.10
2019-01-14T01:32:48.488Z,17.93
2019-01-14T01:35:17.603Z,18.47
2019-01-14T01:37:46.851Z,13.23
2019-01-14T01:40:20.527Z,14.00
2019-01-14T01:42:49.496Z,20.23
2019-01-14T01:45:18.759Z,14.67
2019-01-14T01:47:47.917Z,13.20
2019-01-14T01:50:20.349Z,19.87
2019-01-14T01:52:49.437Z,17.33
2019-01-14T01:55:18.425Z,21.03
2019-01-14T01:57:47.287Z,18.83
2019-01-14T02:00:23.017Z,14.80
2019-01-14T02:02:52.137Z,15.80
2019-01-14T02:05:23.127Z,31.37
2019-01-14T02:07:52.041Z,18.57
2019-01-14T02:10:23.374Z,21.30
2019-01-14T02:12:52.822Z,21.00
2019-01-14T02:15:24.571Z,23.33
2019-01-14T02:17:53.613Z,16.07
2019-01-14T02:20:22.399Z,22.00
2019-01-14T02:22:51.319Z,21.77
2019-01-14T02:25:20.490Z,22.60
2019-01-14T02:27:49.479Z,22.57
2019-01-14T02:30:20.780Z,19.77
2019-01-14T02:32:49.771Z,19.67
2019-01-14T02:35:18.943Z,28.73
2019-01-14T02:37:47.943Z,17.30
2019-01-14T02:40:19.755Z,23.40
2019-01-14T02:42:48.794Z,13.80
2019-01-14T02:45:18.089Z,24.57
2019-01-14T02:47:46.903Z,22.60
2019-01-14T02:50:16.059Z,22.23
2019-01-14T02:52:45.030Z,21.40
2019-01-14T02:55:14.231Z,21.80
2019-01-14T02:57:43.056Z,12.57
2019-01-14T03:00:15.789Z,27.53
2019-01-14T03:02:44.633Z,18.43
2019-01-14T03:05:13.977Z,22.80
2019-01-14T03:07:43.009Z,16.80
2019-01-14T03:10:12.907Z,16.47
2019-01-14T03:12:41.778Z,16.33
2019-01-14T03:15:11.117Z,16.73
2019-01-14T03:17:40.046Z,15.87
2019-01-14T03:20:10.611Z,24.80
2019-01-14T03:22:39.575Z,14.70
2019-01-14T03:25:09.937Z,17.10
2019-01-14T03:27:38.784Z,18.73
2019-01-14T03:30:09.780Z,18.07
2019-01-14T03:32:38.717Z,17.57
2019-01-14T03:35:08.375Z,20.70
2019-01-14T03:37:37.297Z,18.37
2019-01-14T03:40:08.848Z,16.60
2019-01-14T03:42:37.819Z,21.80
2019-01-14T03:45:07.011Z,20.27
2019-01-14T03:47:35.903Z,19.60
2019-01-14T03:50:07.330Z,25.27
2019-01-14T03:52:36.327Z,17.67
2019-01-14T03:55:06.941Z,18.37
2019-01-14T03:57:35.924Z,16.20
2019-01-14T04:00:08.230Z,20.33
2019-01-14T04:02:37.169Z,20.27
2019-01-14T04:05:07.775Z,19.73
2019-01-14T04:07:36.806Z,16.23
2019-01-14T04:10:07.884Z,14.20
2019-01-14T04:12:37.129Z,16.33
2019-01-14T04:15:06.859Z,13.43
2019-01-14T04:17:35.904Z,16.47
2019-01-14T04:20:06.447Z,11.83
2019-01-14T04:22:35.280Z,12.03
2019-01-14T04:25:05.280Z,13.97
2019-01-14T04:27:34.229Z,12.93
2019-01-14T04:30:03.228Z,14.40
2019-01-14T04:32:32.052Z,18.43
2019-01-14T04:35:00.885Z,14.10
2019-01-14T04:37:29.750Z,7.20
2019-01-14T04:39:58.936Z,12.10
2019-01-14T04:42:27.845Z,11.87
2019-01-14T04:44:56.718Z,14.63
2019-01-14T04:47:25.618Z,11.40
2019-01-14T04:49:54.512Z,10.63
2019-01-14T04:52:23.458Z,12.63
2019-01-14T04:54:52.354Z,7.17
2019-01-14T04:57:21.226Z,6.63
2019-01-14T04:59:50.119Z,9.97
2019-01-14T05:02:19.388Z,8.33
2019-01-14T05:04:48.238Z,11.60
2019-01-14T05:07:17.093Z,10.80
2019-01-14T05:09:46.020Z,9.70
2019-01-14T05:12:14.978Z,17.23
2019-01-14T05:14:43.831Z,8.07
2019-01-14T05:17:12.709Z,11.83
2019-01-14T05:19:41.628Z,20.40
2019-01-14T05:22:10.469Z,14.03
2019-01-14T05:24:39.415Z,8.20
2019-01-14T05:27:08.331Z,6.73
2019-01-14T05:29:37.145Z,9.20
2019-01-14T05:32:06.664Z,10.83
2019-01-14T05:34:35.544Z,9.40
2019-01-14T05:37:04.663Z,11.33
2019-01-14T05:39:33.721Z,10.37
2019-01-14T05:42:02.618Z,11.63
2019-01-14T05:44:31.512Z,11.47
2019-01-14T05:47:00.368Z,17.53
2019-01-14T05:49:29.326Z,6.90
2019-01-14T05:51:58.199Z,19.10
2019-01-14T05:54:27.087Z,8.27
2019-01-14T05:56:55.987Z,12.83
2019-01-14T05:59:24.890Z,11.70
2019-01-14T06:01:53.769Z,9.03
2019-01-14T06:04:22.983Z,18.50
2019-01-14T06:06:51.764Z,9.60
2019-01-14T06:09:20.640Z,14.90
2019-01-14T06:11:49.535Z,18.03
2019-01-14T06:14:18.351Z,20.53
2019-01-14T06:16:53.294Z,13.57
2019-01-14T06:19:27.037Z,8.00
2019-01-14T06:21:55.867Z,14.43
2019-01-14T06:24:24.641Z,4.80
2019-01-14T06:26:56.437Z,12.33
2019-01-14T06:29:25.243Z,8.47
2019-01-14T06:31:54.193Z,6.70
2019-01-14T06:34:23.367Z,15.90
2019-01-14T06:36:55.257Z,10.23
2019-01-14T06:39:24.655Z,11.63
2019-01-14T06:41:53.503Z,6.67
2019-01-14T06:44:22.401Z,11.53
2019-01-14T06:46:51.291Z,9.47
2019-01-14T06:49:20.177Z,11.60
2019-01-14T06:51:48.995Z,14.53
2019-01-14T06:54:17.901Z,6.63
2019-01-14T06:56:46.932Z,8.43
2019-01-14T06:59:15.749Z,12.40
2019-01-14T07:01:44.641Z,10.70
2019-01-14T07:04:13.529Z,7.57
2019-01-14T07:06:42.374Z,15.53
2019-01-14T07:09:11.309Z,15.43
2019-01-14T07:11:40.709Z,8.57
2019-01-14T07:14:10.702Z,9.67
2019-01-14T07:16:39.650Z,8.63
2019-01-14T07:19:08.453Z,9.67
2019-01-14T07:21:37.366Z,6.70
2019-01-14T07:24:06.383Z,7.40
2019-01-14T07:26:35.263Z,7.20
2019-01-14T07:29:04.308Z,6.33
2019-01-14T07:31:33.224Z,5.03
2019-01-14T07:34:02.271Z,13.43
2019-01-14T07:36:31.213Z,10.23
2019-01-14T07:38:59.996Z,7.93
2019-01-14T07:41:29.578Z,14.00
2019-01-14T07:43:58.715Z,5.60
2019-01-14T07:46:27.588Z,6.67
2019-01-14T07:49:05.223Z,10.47
2019-01-14T07:51:34.433Z,6.13
2019-01-14T07:54:03.531Z,8.60
2019-01-14T07:56:32.944Z,7.50
2019-01-14T07:59:02.565Z,9.37
2019-01-14T08:01:31.604Z,6.37
2019-01-14T08:04:00.514Z,16.03
2019-01-14T08:06:29.469Z,11.77
2019-01-14T08:08:58.287Z,9.97
2019-01-14T08:11:27.096Z,12.53
2019-01-14T08:13:56.026Z,7.10
2019-01-14T08:16:24.804Z,9.63
2019-01-14T08:18:53.628Z,15.53
2019-01-14T08:21:22.544Z,6.67
2019-01-14T08:23:51.378Z,9.20
2019-01-14T08:26:20.336Z,12.63
2019-01-14T08:28:49.217Z,12.40
2019-01-14T08:31:18.127Z,7.00
2019-01-14T08:33:47.193Z,8.30
2019-01-14T08:36:16.120Z,5.27
2019-01-14T08:38:45.046Z,8.87
2019-01-14T08:41:14.830Z,8.00
2019-01-14T08:43:44.572Z,7.27
2019-01-14T08:46:13.542Z,7.30
2019-01-14T08:48:48.685Z,15.60
2019-01-14T08:51:13.208Z,4.30
2019-01-14T08:53:42.178Z,13.87
2019-01-14T08:56:11.032Z,13.27
2019-01-14T08:58:39.923Z,9.17
2019-01-14T09:01:08.778Z,9.10
2019-01-14T09:03:37.739Z,6.50
2019-01-14T09:06:06.862Z,6.40
2019-01-14T09:08:35.862Z,7.70
2019-01-14T09:11:04.808Z,8.03
2019-01-14T09:13:33.634Z,10.80
2019-01-14T09:16:02.637Z,6.20
2019-01-14T09:18:31.472Z,5.90
2019-01-14T09:21:00.320Z,12.83
2019-01-14T09:23:29.252Z,7.60
2019-01-14T09:25:58.058Z,9.53
2019-01-14T09:28:27.043Z,6.93
2019-01-14T09:30:55.972Z,3.13
2019-01-14T09:33:25.334Z,8.60
2019-01-14T09:35:54.240Z,11.57
2019-01-14T09:38:23.126Z,8.10
2019-01-14T09:40:52.066Z,9.30
2019-01-14T09:43:21.148Z,6.77
2019-01-14T09:45:50.126Z,12.00
2019-01-14T09:48:19.137Z,12.70
2019-01-14T09:50:48.134Z,12.13
2019-01-14T09:53:17.106Z,8.23
2019-01-14T09:55:46.060Z,7.37
2019-01-14T09:58:15.048Z,7.63
2019-01-14T10:00:43.978Z,10.10
2019-01-14T10:03:12.821Z,5.70
2019-01-14T10:05:41.721Z,9.60
2019-01-14T10:08:10.551Z,5.77
2019-01-14T10:10:39.526Z,6.73
2019-01-14T10:13:08.415Z,8.50
2019-01-14T10:15:37.341Z,12.03
2019-01-14T10:18:06.542Z,4.20
2019-01-14T10:20:35.572Z,8.93
2019-01-14T10:23:04.691Z,15.80
2019-01-14T10:25:34.987Z,5.90
2019-01-14T10:28:04.138Z,10.17
2019-01-14T10:30:33.127Z,6.17
2019-01-14T10:33:02.120Z,7.47
2019-01-14T10:35:31.141Z,7.40
2019-01-14T10:38:00.150Z,13.37
2019-01-14T10:40:29.044Z,3.60
2019-01-14T10:42:58.006Z,4.00
2019-01-14T10:45:26.819Z,8.33
2019-01-14T10:47:55.838Z,12.63
2019-01-14T10:50:24.786Z,5.70
2019-01-14T10:52:53.837Z,6.67
2019-01-14T10:55:22.775Z,8.10
2019-01-14T10:57:51.939Z,5.87
2019-01-14T11:00:25.918Z,5.03
2019-01-14T11:02:54.994Z,2.90
2019-01-14T11:05:27.011Z,6.03
2019-01-14T11:07:56.513Z,2.40
2019-01-14T11:10:25.509Z,5.97
2019-01-14T11:12:54.567Z,13.40
2019-01-14T11:15:23.545Z,6.80
2019-01-14T11:17:52.623Z,10.27
2019-01-14T11:20:24.239Z,3.73
2019-01-14T11:22:53.309Z,6.97
2019-01-14T11:25:22.183Z,9.00
2019-01-14T11:27:51.213Z,10.13
2019-01-14T11:30:23.245Z,5.03
2019-01-14T11:32:52.206Z,2.23
2019-01-14T11:35:21.196Z,9.40
2019-01-14T11:37:50.136Z,3.90
2019-01-14T11:40:21.373Z,2.20
2019-01-14T11:42:50.317Z,4.67
2019-01-14T11:45:19.368Z,3.53
2019-01-14T11:47:48.272Z,3.60
2019-01-14T11:50:17.540Z,1.73
2019-01-14T11:52:47.352Z,5.30
2019-01-14T11:55:16.430Z,8.20
2019-01-14T11:57:45.450Z,2.60
2019-01-14T12:00:23.220Z,5.20
2019-01-14T12:02:52.229Z,5.30
2019-01-14T12:05:21.232Z,3.80
2019-01-14T12:07:50.323Z,14.70
2019-01-14T12:10:19.259Z,5.90
2019-01-14T12:12:48.302Z,4.47
2019-01-14T12:15:22.899Z,2.10
2019-01-14T12:17:51.738Z,2.83
2019-01-14T12:20:20.792Z,4.37
2019-01-14T12:22:49.984Z,2.73
2019-01-14T12:25:19.955Z,3.37
2019-01-14T12:27:49.272Z,3.17
2019-01-14T12:30:25.094Z,2.90
2019-01-14T12:32:54.035Z,3.43
2019-01-14T12:35:22.981Z,4.27
2019-01-14T12:37:51.930Z,3.03
2019-01-14T12:40:20.876Z,14.93
2019-01-14T12:42:49.818Z,3.20
2019-01-14T12:45:18.914Z,2.33
2019-01-14T12:47:47.964Z,3.13
2019-01-14T12:50:17.008Z,2.80
2019-01-14T12:52:46.114Z,3.50
2019-01-14T12:55:16.178Z,4.23
2019-01-14T12:57:45.371Z,3.07
2019-01-14T13:00:16.898Z,6.27
2019-01-14T13:02:45.894Z,2.40
2019-01-14T13:05:16.342Z,2.60
2019-01-14T13:07:45.408Z,2.93
2019-01-14T13:10:14.811Z,4.43
2019-01-14T13:12:43.940Z,5.37
2019-01-14T13:15:15.407Z,2.00
2019-01-14T13:17:44.389Z,5.03
2019-01-14T13:20:14.123Z,6.00
2019-01-14T13:22:43.280Z,4.00
2019-01-14T13:25:12.289Z,3.13
2019-01-14T13:27:41.323Z,3.53
2019-01-14T13:30:23.246Z,2.03
2019-01-14T13:32:52.299Z,2.17
2019-01-14T13:35:21.407Z,1.73
2019-01-14T13:37:50.516Z,6.47
2019-01-14T13:40:19.602Z,2.63
2019-01-14T13:42:52.357Z,2.63
2019-01-14T13:45:21.507Z,2.20
2019-01-14T13:47:51.318Z,3.43
2019-01-14T13:50:22.299Z,2.83
2019-01-14T13:52:51.462Z,2.33
2019-01-14T13:55:20.778Z,3.23
2019-01-14T13:57:52.335Z,4.60
2019-01-14T14:00:24.313Z,3.67
2019-01-14T14:02:59.294Z,2.50
2019-01-14T14:05:29.042Z,4.47
2019-01-14T14:08:00.844Z,11.03
2019-01-14T14:10:34.442Z,8.03
2019-01-14T14:13:03.463Z,4.13
2019-01-14T14:15:33.099Z,4.83
2019-01-14T14:18:02.188Z,3.63
2019-01-14T14:20:31.201Z,6.63
2019-01-14T14:23:00.095Z,8.37
2019-01-14T14:25:29.105Z,7.17
2019-01-14T14:27:58.295Z,3.33
2019-01-14T14:30:31.168Z,4.30
2019-01-14T14:33:00.141Z,3.43
2019-01-14T14:35:29.055Z,10.25
2019-01-14T14:38:01.157Z,3.27
2019-01-14T14:40:29.236Z,3.67
2019-01-14T14:42:58.181Z,9.30
2019-01-14T14:45:27.303Z,5.87
2019-01-14T14:47:56.267Z,5.57
2019-01-14T14:50:25.504Z,2.50
2019-01-14T14:52:54.620Z,10.90
2019-01-14T14:55:23.594Z,4.00
2019-01-14T14:57:52.794Z,2.33
2019-01-14T15:00:22.497Z,6.20
2019-01-14T15:02:51.559Z,4.87
2019-01-14T15:05:20.691Z,3.00
2019-01-14T15:07:49.713Z,2.07
2019-01-14T15:10:20.343Z,9.80
2019-01-14T15:12:49.375Z,2.50
2019-01-14T15:15:20.582Z,4.73
2019-01-14T15:17:49.581Z,6.58
2019-01-14T15:20:19.147Z,8.13
2019-01-14T15:22:48.125Z,4.30
2019-01-14T15:25:17.301Z,6.78
2019-01-14T15:27:46.140Z,3.87
2019-01-14T15:30:28.869Z,6.27
2019-01-14T15:32:57.787Z,2.70
2019-01-14T15:35:26.901Z,3.30
2019-01-14T15:37:55.787Z,1.90
2019-01-14T15:40:25.597Z,3.03
2019-01-14T15:42:54.497Z,5.27
2019-01-14T15:45:25.037Z,5.87
2019-01-14T15:47:54.040Z,5.90
2019-01-14T15:50:23.131Z,1.90
2019-01-14T15:52:52.016Z,6.30
2019-01-14T15:55:23.373Z,2.70
2019-01-14T15:57:52.426Z,2.90
2019-01-14T16:00:21.455Z,1.63
2019-01-14T16:02:50.448Z,4.43
2019-01-14T16:05:19.825Z,1.80
2019-01-14T16:07:48.790Z,7.27
2019-01-14T16:10:27.289Z,1.20
2019-01-14T16:12:56.320Z,3.65
2019-01-14T16:15:25.454Z,1.17
2019-01-14T16:17:54.382Z,4.07
2019-01-14T16:20:25.179Z,3.87
2019-01-14T16:22:54.168Z,3.70
2019-01-14T16:25:23.141Z,4.47
2019-01-14T16:27:52.057Z,4.90
2019-01-14T16:30:24.319Z,2.43
2019-01-14T16:32:53.174Z,3.43
2019-01-14T16:35:22.208Z,5.17
2019-01-14T16:37:51.340Z,10.15
2019-01-14T16:40:20.277Z,2.85
2019-01-14T16:42:49.211Z,1.37
2019-01-14T16:45:24.312Z,1.98
2019-01-14T16:47:53.308Z,8.30
2019-01-14T16:50:23.430Z,5.93
2019-01-14T16:53:11.992Z,4.62
2019-01-14T16:58:55.900Z,5.37
2019-01-14T17:01:44.228Z,5.25
2019-01-14T17:04:32.792Z,4.00
2019-01-14T17:07:21.034Z,6.17
2019-01-14T17:10:10.023Z,2.90
2019-01-14T17:12:58.209Z,4.42
2019-01-14T17:15:46.374Z,6.87
2019-01-14T17:18:34.576Z,3.95
2019-01-14T17:21:22.864Z,1.82
2019-01-14T17:24:11.040Z,5.78
2019-01-14T17:26:59.246Z,10.78
2019-01-14T17:29:48.068Z,4.05
2019-01-14T17:32:36.250Z,7.95
2019-01-14T17:35:24.312Z,2.83
2019-01-14T17:38:12.740Z,7.58
2019-01-14T17:41:00.896Z,13.45
2019-01-14T17:43:29.860Z,8.48
2019-01-14T17:46:18.278Z,5.80
2019-01-14T17:49:06.445Z,6.00
2019-01-14T17:51:46.900Z,10.40
2019-01-14T17:54:25.892Z,5.60
2019-01-14T17:57:14.032Z,8.03
2019-01-14T18:00:02.379Z,9.28
2019-01-14T18:02:50.588Z,16.93
2019-01-14T18:05:38.992Z,10.05
2019-01-14T18:08:27.465Z,4.95
2019-01-14T18:11:15.606Z,24.45
2019-01-14T18:14:05.532Z,5.33
2019-01-14T18:16:53.912Z,6.60
2019-01-14T18:19:42.142Z,6.10
2019-01-14T18:22:30.509Z,5.90
2019-01-14T18:25:20.633Z,2.35
2019-01-14T18:28:08.988Z,8.35
2019-01-14T18:30:57.173Z,7.92
2019-01-14T18:33:45.385Z,11.57
2019-01-14T18:36:33.541Z,11.00
2019-01-14T18:39:21.685Z,5.15
2019-01-14T18:42:09.793Z,7.37
2019-01-14T18:44:50.439Z,20.48
2019-01-14T18:47:31.053Z,17.32
2019-01-14T18:50:11.755Z,4.40
2019-01-14T18:52:52.458Z,11.12
2019-01-14T18:55:31.598Z,7.17
2019-01-14T18:58:19.649Z,5.10
2019-01-14T19:01:07.833Z,14.97
2019-01-14T19:03:55.997Z,11.40
2019-01-14T19:06:44.207Z,9.73
2019-01-14T19:09:32.322Z,4.42
2019-01-14T19:12:20.497Z,9.60
2019-01-14T19:15:10.071Z,12.65
2019-01-14T19:17:58.215Z,5.28
2019-01-14T19:20:28.779Z,13.43
2019-01-14T19:23:17.009Z,14.10
2019-01-14T19:25:45.919Z,6.30
2019-01-14T19:28:34.055Z,10.28
2019-01-14T19:31:22.266Z,8.40
2019-01-14T19:34:10.445Z,5.22
2019-01-14T19:36:58.626Z,7.75
2019-01-14T19:39:46.695Z,6.70
2019-01-14T19:42:34.807Z,21.23
2019-01-14T19:45:13.897Z,17.73
2019-01-14T19:48:02.100Z,10.85
2019-01-14T19:50:50.465Z,5.15
2019-01-14T19:53:38.589Z,10.25
2019-01-14T19:56:26.676Z,7.35
2019-01-14T19:59:14.778Z,12.68
2019-01-14T20:02:02.861Z,17.48
2019-01-14T20:04:51.000Z,11.10
2019-01-14T20:07:39.073Z,13.30
2019-01-14T20:10:27.253Z,10.13
2019-01-14T20:13:15.309Z,9.15
2019-01-14T20:16:03.525Z,20.88
2019-01-14T20:18:51.910Z,14.13
2019-01-14T20:21:40.114Z,14.05
2019-01-14T20:24:28.286Z,13.05
2019-01-14T20:27:16.570Z,11.63
2019-01-14T20:30:25.260Z,15.68
2019-01-14T20:33:32.566Z,12.82
2019-01-14T20:36:20.872Z,15.23
2019-01-14T20:42:07.524Z,9.20
2019-01-14T20:44:55.572Z,14.98
2019-01-14T20:47:37.705Z,10.28
2019-01-14T20:50:20.336Z,15.48
2019-01-14T20:52:59.534Z,10.68
2019-01-14T20:55:47.741Z,12.82
2019-01-14T20:58:26.390Z,8.00
2019-01-14T21:01:14.466Z,5.40
2019-01-14T21:04:02.651Z,9.68
2019-01-14T21:06:51.220Z,13.95
2019-01-14T21:09:39.696Z,9.35
2019-01-14T21:12:27.915Z,6.40
2019-01-14T21:15:16.066Z,8.78
2019-01-14T21:18:04.241Z,9.63
2019-01-14T21:20:33.144Z,7.28
2019-01-14T21:23:21.254Z,12.07
2019-01-14T21:26:09.600Z,12.63
2019-01-14T21:28:57.718Z,6.62
2019-01-14T21:31:45.801Z,15.95
2019-01-14T21:34:34.331Z,11.65
2019-01-14T21:37:22.449Z,13.68
2019-01-14T21:40:29.762Z,6.55
2019-01-14T21:43:18.136Z,11.30
2019-01-14T21:45:47.127Z,3.53
2019-01-14T21:48:17.270Z,6.67
2019-01-14T21:50:46.673Z,11.43
2019-01-14T21:53:15.585Z,6.95
2019-01-14T21:55:44.685Z,9.50
2019-01-14T21:58:13.807Z,7.45
2019-01-14T22:00:42.694Z,14.98
2019-01-14T22:03:11.661Z,4.35
2019-01-14T22:05:40.544Z,11.00
2019-01-14T22:08:09.387Z,7.33
2019-01-14T22:10:38.239Z,10.58
2019-01-14T22:13:07.279Z,6.92
2019-01-14T22:15:36.551Z,12.20
2019-01-14T22:18:05.597Z,18.80
2019-01-14T22:20:34.539Z,19.90
2019-01-14T22:23:03.629Z,5.92
2019-01-14T22:25:32.506Z,11.35
2019-01-14T22:28:01.431Z,12.18
2019-01-14T22:30:40.309Z,12.20
2019-01-14T22:33:09.521Z,8.63
2019-01-14T22:35:38.871Z,13.25
2019-01-14T22:38:09.460Z,10.13
2019-01-14T22:40:38.490Z,6.62
2019-01-14T22:43:07.474Z,7.08
2019-01-14T22:45:37.869Z,16.87
2019-01-14T22:48:06.793Z,10.30
2019-01-14T22:50:50.102Z,8.53
2019-01-14T22:53:18.991Z,13.88
2019-01-14T22:55:47.952Z,12.07
2019-01-14T22:58:16.793Z,12.70
2019-01-14T23:01:15.540Z,16.50
2019-01-14T23:03:49.861Z,10.78
2019-01-14T23:06:18.874Z,10.98
2019-01-14T23:08:47.780Z,14.58
2019-01-14T23:11:16.834Z,10.43
2019-01-14T23:13:45.715Z,11.85
2019-01-14T23:16:14.765Z,10.03
2019-01-14T23:18:43.634Z,19.05
2019-01-14T23:21:12.601Z,15.07
2019-01-14T23:23:41.544Z,10.68
2019-01-14T23:26:10.591Z,4.53
2019-01-14T23:28:39.554Z,11.25
2019-01-14T23:31:08.554Z,9.00
2019-01-14T23:33:37.502Z,10.28
2019-01-14T23:36:06.495Z,11.70
2019-01-14T23:38:41.442Z,16.12
2019-01-14T23:41:10.284Z,12.80
2019-01-14T23:43:58.886Z,9.57
2019-01-14T23:46:24.531Z,12.60
2019-01-14T23:48:54.071Z,6.12
2019-01-14T23:51:22.992Z,8.83
2019-01-14T23:53:55.294Z,12.40
2019-01-14T23:56:24.216Z,6.77
2019-01-14T23:58:53.089Z,12.23
